Briefing drone pour Aix-les-bains

Rechercher une autre localisation

Conditions de vol :


Nous sommes le : Mardi 13 avril 2021
Il est 16:33 UTC (18:33 LT)

Lever de soleil : 04:26 UTC (06:26 LT)
Coucher de soleil : 18:46 UTC (20:46 LT)

Météo

L'essentiel des conditions de vol

VIGILANCE MÉTÉO FRANCE - Savoie (73)
Pas de vigilances particulieres
METAR de LFLB
LFLB 131600Z AUTO 34015KT CAVOK 12/M02 Q1024 NOSIG

Date d'émission: 13/04/2021
Heure d'émission: 16:00 UTC
Vent: 340° pour 15 KT (28 km/h)
Visibilité horizontale: > 10 km
Plafond : Plafond et visibilité OK (CAVOK)
Température: 12 °C
Point de rosée: -2 °C
Humidité: 38%
Pression (QNH): 1024 hPa
Conditions: Pas de changement dans les 2 heures (NOSIG)
TAF de LFLB
LFLB 131400Z 1315/1415 36015KT CAVOK

Conditions prévues :

Heure d'émission : Bulletin éffectué le 13 à 15:00 UTC
Prévision : Valide du 13 a 15:00 UTC au 14 a 15:00 UTC
Vent : 360° pour 15 KT (28 km/h)
Visibilité : > 10 km
WEBCAM POUR AIX-LES-BAINS

Réglementation

Voler en sécurité

CARTES AERONAUTIQUE 1/500.000
CARTES VAC (LFLB)
SUP AIP




Chargement des AIP...
NOTAM (AIX-LES-BAINS + Terrain à proximité / FIR )




Chargement des NOTAMS...
CONTACT PREFECTURE 73


Avertissement : Les données mises à disposition sont indicatives. Oxygène Drone ne pourra être tenu responsable de dégâts causés aux biens et aux personnes.